Arbon, Idaho
Current Conditions -  °F | °C
As of 12:53 PM on Monday 26 Jan 2015 (Local Time) from KPIH Reporting Station
Few Clouds Few Clouds  
Wind Chill:   Ceiling: Unl
Heat Index:   Visibility: 10mi
Dew Point:   Wind: 6mph
Humidity: 96%   Direction: 40°NE
Pressure: 30.33"   Gusts: NA
Location:  42.46°N, 112.57°W
Report Text: KPIH 261953Z 04005KT 10SM FEW003 07/06 A3033 RMK AO2 SLP283 T00670061
Loading
Personal Weather Stations






























Interactive Weather Map New forecast layout! Learn more

10-Day Weather Forecast

Advertisements
Track Severe Weather on mobile